BOM weather

Chhatrapati Shivaji International Airport
Mumbai, Maharashtra, India

Public forecast

Using degrees Celsius for public forecast. Weather courtesy of forecast.io.

Current aviation weather report (METAR) for Chhatrapati Shivaji International Airport

Retrieved 2019/10/21 06:30 UTC (0 seconds ago):

VABB 210630Z 05007KT 5000 HZ FEW020 BKN100 30/22 Q1010 NOSIG

Aviation forecast (TAF) for Chhatrapati Shivaji International Airport

Retrieved 2019/10/21 06:00 UTC (2 minutes ago):

TAF VABB 210500Z 2106/2212 09008KT 4000 HZ SCT020 BKN100 TEMPO 2106/2115 1500 SHRA RA FEW012 FEW030CB BKN080 BECMG 2112/2114 2500 -RA HZ TEMPO 2112/2121 2000 -SHRA RA SCT018 FEW030CB BKN080 BECMG 2203/2205 3000 HZ TEMPO 2203/2212 2000 -SHRA RA SCT012 FEW030CB BKN080 BECMG 2206/2208 10008KT 4000 HZ